Hauptseite
METAR-TAF:

METAR-TAF

Flughäfen :

Flughafen Bengasi

Banghazi, Libyen

Breite: 32-06N, Länge: 020-16E, Höhe: 131 m

METAR: fehlend

Zeit: 15:01 (13:01 UTC)

Prognose

Neuester Wetterbericht von vor 32 Stunden und 1 Minuten, um 05:00 UTC
Gültige Prognose vom 16 um 06 UTC bis 17 um 06 UTC
Wind 15 kt aus Südost
Sichtweite 10 km oder mehr
keine Wolken unter 1500 m und keine Kumulonimbus oder Gewitterwolken
Übergehend zu
vom 16 um 08 UTC bis 16 um 10 UTC
Wind 15 kt aus Südost, Böen bis zu 25 kt
Wahrscheinlichkeit 30%
vom 16 um 08 UTC bis 16 um 15 UTC
Sichtweite: 5000 m
Sandtreiben
Übergehend zu
vom 16 um 15 UTC bis 16 um 17 UTC
Wind 15 kt aus Südost
Übergehend zu
vom 17 um 00 UTC bis 17 um 02 UTC
Wind 15 kt aus Südost, Böen bis zu 25 kt

TAF: HLLB 160500Z 1606/1706 14015KT CAVOK BECMG 1608/1610 14015G25KT PROB30 1608/1615 5000 BLSA NSC BECMG 1615/1617 14015KTKT BECMG 1700/1702 14015G25KT

Wetterbeobachtungen und Prognosen von mehr als 4000 Flughäfen (METAR und TAF Bericht).

Die verfügbaren Stationen werden durch gelbe und rote Markierungen auf der Karte dargestellt.

Führen Sie die Maus auf sie, um den Namen der Station zu sehen.

Darauf klicken, um die Beobachtung von Wetterbeobachtungen und Prognosen zu sehen.

Um die Karte zu ändern : klicken Sie auf den grünen Tasten mit einem schwarzen Kreuz Zum Vergrößern, auf den grünen Button mit einem Gedankenstrich zu verkleinern, oder auf die grünen Pfeile für benachbarte Karten.


METAR-TAF: